sensor_id;sensor_type;location;lat;lon;timestamp;P1;durP1;ratioP1;P2;durP2;ratioP2
6205;SDS011;3136;48.788;9.772;2023-05-20T00:02:01;4.30;;;3.23;;
6205;SDS011;3136;48.788;9.772;2023-05-20T00:04:26;4.77;;;3.27;;
6205;SDS011;3136;48.788;9.772;2023-05-20T00:06:52;4.83;;;3.67;;
6205;SDS011;3136;48.788;9.772;2023-05-20T00:09:18;4.03;;;3.30;;
6205;SDS011;3136;48.788;9.772;2023-05-20T00:11:44;4.03;;;3.00;;
6205;SDS011;3136;48.788;9.772;2023-05-20T00:14:10;5.17;;;3.10;;
6205;SDS011;3136;48.788;9.772;2023-05-20T00:16:36;5.67;;;3.43;;
6205;SDS011;3136;48.788;9.772;2023-05-20T00:19:02;5.77;;;3.40;;
6205;SDS011;3136;48.788;9.772;2023-05-20T00:21:28;4.60;;;3.47;;
6205;SDS011;3136;48.788;9.772;2023-05-20T00:23:54;6.43;;;3.53;;
6205;SDS011;3136;48.788;9.772;2023-05-20T00:26:20;7.23;;;3.57;;
6205;SDS011;3136;48.788;9.772;2023-05-20T00:28:46;5.70;;;3.37;;
6205;SDS011;3136;48.788;9.772;2023-05-20T00:31:12;4.93;;;3.33;;
6205;SDS011;3136;48.788;9.772;2023-05-20T00:33:38;5.57;;;3.87;;
6205;SDS011;3136;48.788;9.772;2023-05-20T00:36:03;4.23;;;3.70;;
6205;SDS011;3136;48.788;9.772;2023-05-20T00:38:29;4.10;;;3.67;;
6205;SDS011;3136;48.788;9.772;2023-05-20T00:40:55;6.00;;;3.90;;
6205;SDS011;3136;48.788;9.772;2023-05-20T00:43:20;5.57;;;3.90;;
6205;SDS011;3136;48.788;9.772;2023-05-20T00:45:49;4.17;;;3.33;;
6205;SDS011;3136;48.788;9.772;2023-05-20T00:48:15;6.90;;;3.80;;
6205;SDS011;3136;48.788;9.772;2023-05-20T00:50:41;5.10;;;3.70;;
6205;SDS011;3136;48.788;9.772;2023-05-20T00:53:07;5.80;;;3.70;;
6205;SDS011;3136;48.788;9.772;2023-05-20T00:55:33;5.63;;;3.70;;
6205;SDS011;3136;48.788;9.772;2023-05-20T00:57:59;4.73;;;3.70;;
6205;SDS011;3136;48.788;9.772;2023-05-20T01:00:25;4.13;;;3.73;;
6205;SDS011;3136;48.788;9.772;2023-05-20T01:02:51;5.67;;;4.03;;
6205;SDS011;3136;48.788;9.772;2023-05-20T01:05:17;6.60;;;3.87;;
6205;SDS011;3136;48.788;9.772;2023-05-20T01:07:42;6.77;;;4.10;;
6205;SDS011;3136;48.788;9.772;2023-05-20T01:10:08;5.10;;;3.63;;
6205;SDS011;3136;48.788;9.772;2023-05-20T01:12:36;4.63;;;3.93;;
6205;SDS011;3136;48.788;9.772;2023-05-20T01:15:10;6.23;;;4.13;;
6205;SDS011;3136;48.788;9.772;2023-05-20T01:17:38;5.37;;;4.13;;
6205;SDS011;3136;48.788;9.772;2023-05-20T01:20:09;4.53;;;3.63;;
6205;SDS011;3136;48.788;9.772;2023-05-20T01:22:45;5.37;;;4.00;;
6205;SDS011;3136;48.788;9.772;2023-05-20T01:25:11;6.83;;;3.60;;
6205;SDS011;3136;48.788;9.772;2023-05-20T01:27:37;5.23;;;3.87;;
6205;SDS011;3136;48.788;9.772;2023-05-20T01:30:03;7.27;;;4.27;;
6205;SDS011;3136;48.788;9.772;2023-05-20T01:32:40;6.40;;;3.90;;
6205;SDS011;3136;48.788;9.772;2023-05-20T01:35:08;5.33;;;3.60;;
6205;SDS011;3136;48.788;9.772;2023-05-20T01:37:35;4.83;;;3.93;;
6205;SDS011;3136;48.788;9.772;2023-05-20T01:40:05;4.93;;;4.13;;
6205;SDS011;3136;48.788;9.772;2023-05-20T01:42:32;5.13;;;3.83;;
6205;SDS011;3136;48.788;9.772;2023-05-20T01:44:59;5.27;;;4.37;;
6205;SDS011;3136;48.788;9.772;2023-05-20T01:47:25;4.70;;;4.10;;
6205;SDS011;3136;48.788;9.772;2023-05-20T01:49:50;5.00;;;4.10;;
6205;SDS011;3136;48.788;9.772;2023-05-20T01:52:18;4.50;;;3.67;;
6205;SDS011;3136;48.788;9.772;2023-05-20T01:54:44;5.57;;;4.10;;
6205;SDS011;3136;48.788;9.772;2023-05-20T01:57:15;5.37;;;4.07;;
6205;SDS011;3136;48.788;9.772;2023-05-20T01:59:44;5.33;;;4.10;;
6205;SDS011;3136;48.788;9.772;2023-05-20T02:02:10;6.07;;;4.03;;
6205;SDS011;3136;48.788;9.772;2023-05-20T02:04:36;5.90;;;3.97;;
6205;SDS011;3136;48.788;9.772;2023-05-20T02:07:01;7.23;;;3.80;;
6205;SDS011;3136;48.788;9.772;2023-05-20T02:09:27;4.23;;;3.83;;
6205;SDS011;3136;48.788;9.772;2023-05-20T02:11:52;5.00;;;3.83;;
6205;SDS011;3136;48.788;9.772;2023-05-20T02:14:18;4.10;;;3.70;;
6205;SDS011;3136;48.788;9.772;2023-05-20T02:16:44;6.83;;;4.13;;
6205;SDS011;3136;48.788;9.772;2023-05-20T02:19:11;5.50;;;4.17;;
6205;SDS011;3136;48.788;9.772;2023-05-20T02:21:38;4.97;;;4.37;;
6205;SDS011;3136;48.788;9.772;2023-05-20T02:24:04;7.27;;;4.50;;
6205;SDS011;3136;48.788;9.772;2023-05-20T02:26:30;8.70;;;4.47;;
6205;SDS011;3136;48.788;9.772;2023-05-20T02:28:56;4.83;;;4.37;;
6205;SDS011;3136;48.788;9.772;2023-05-20T02:31:21;6.47;;;4.47;;
6205;SDS011;3136;48.788;9.772;2023-05-20T02:33:47;6.80;;;4.20;;
6205;SDS011;3136;48.788;9.772;2023-05-20T02:36:12;4.63;;;3.87;;
6205;SDS011;3136;48.788;9.772;2023-05-20T02:38:38;7.23;;;4.30;;
6205;SDS011;3136;48.788;9.772;2023-05-20T02:41:03;5.50;;;4.33;;
6205;SDS011;3136;48.788;9.772;2023-05-20T02:43:29;5.80;;;4.00;;
6205;SDS011;3136;48.788;9.772;2023-05-20T02:45:56;5.10;;;4.17;;
6205;SDS011;3136;48.788;9.772;2023-05-20T02:48:21;5.67;;;4.37;;
6205;SDS011;3136;48.788;9.772;2023-05-20T02:50:47;4.63;;;4.20;;
6205;SDS011;3136;48.788;9.772;2023-05-20T02:53:12;9.33;;;4.17;;
6205;SDS011;3136;48.788;9.772;2023-05-20T02:55:39;5.33;;;4.37;;
6205;SDS011;3136;48.788;9.772;2023-05-20T02:58:04;6.13;;;4.40;;
6205;SDS011;3136;48.788;9.772;2023-05-20T03:00:30;6.87;;;4.20;;
6205;SDS011;3136;48.788;9.772;2023-05-20T03:02:56;4.80;;;4.30;;
6205;SDS011;3136;48.788;9.772;2023-05-20T03:05:22;4.87;;;4.07;;
6205;SDS011;3136;48.788;9.772;2023-05-20T03:07:48;4.50;;;4.10;;
6205;SDS011;3136;48.788;9.772;2023-05-20T03:10:14;5.37;;;4.60;;
6205;SDS011;3136;48.788;9.772;2023-05-20T03:12:40;5.23;;;4.17;;
6205;SDS011;3136;48.788;9.772;2023-05-20T03:15:05;4.73;;;4.13;;
6205;SDS011;3136;48.788;9.772;2023-05-20T03:17:31;4.77;;;4.20;;
6205;SDS011;3136;48.788;9.772;2023-05-20T03:19:57;5.20;;;4.47;;
6205;SDS011;3136;48.788;9.772;2023-05-20T03:22:23;7.63;;;4.67;;
6205;SDS011;3136;48.788;9.772;2023-05-20T03:24:48;5.67;;;4.47;;
6205;SDS011;3136;48.788;9.772;2023-05-20T03:27:16;4.93;;;4.37;;
6205;SDS011;3136;48.788;9.772;2023-05-20T03:29:42;6.40;;;4.87;;
6205;SDS011;3136;48.788;9.772;2023-05-20T03:32:08;7.27;;;4.80;;
6205;SDS011;3136;48.788;9.772;2023-05-20T03:34:33;5.47;;;4.80;;
6205;SDS011;3136;48.788;9.772;2023-05-20T03:36:59;6.30;;;5.27;;
6205;SDS011;3136;48.788;9.772;2023-05-20T03:39:24;6.30;;;5.17;;
6205;SDS011;3136;48.788;9.772;2023-05-20T03:41:50;4.83;;;4.33;;
6205;SDS011;3136;48.788;9.772;2023-05-20T03:44:15;5.57;;;4.40;;
6205;SDS011;3136;48.788;9.772;2023-05-20T03:46:41;5.53;;;4.60;;
6205;SDS011;3136;48.788;9.772;2023-05-20T03:49:07;6.03;;;5.13;;
6205;SDS011;3136;48.788;9.772;2023-05-20T03:51:32;8.83;;;5.13;;
6205;SDS011;3136;48.788;9.772;2023-05-20T03:53:58;5.83;;;5.20;;
6205;SDS011;3136;48.788;9.772;2023-05-20T03:56:23;6.27;;;4.87;;
6205;SDS011;3136;48.788;9.772;2023-05-20T03:58:50;7.57;;;5.03;;
6205;SDS011;3136;48.788;9.772;2023-05-20T04:01:15;7.43;;;4.90;;
6205;SDS011;3136;48.788;9.772;2023-05-20T04:03:41;7.47;;;4.17;;
6205;SDS011;3136;48.788;9.772;2023-05-20T04:06:07;7.43;;;4.40;;
6205;SDS011;3136;48.788;9.772;2023-05-20T04:08:33;5.93;;;4.20;;
6205;SDS011;3136;48.788;9.772;2023-05-20T04:11:00;6.43;;;4.40;;
6205;SDS011;3136;48.788;9.772;2023-05-20T04:13:26;6.33;;;4.20;;
6205;SDS011;3136;48.788;9.772;2023-05-20T04:15:52;7.43;;;4.47;;
6205;SDS011;3136;48.788;9.772;2023-05-20T04:18:18;8.07;;;4.53;;
6205;SDS011;3136;48.788;9.772;2023-05-20T04:20:44;5.80;;;4.53;;
6205;SDS011;3136;48.788;9.772;2023-05-20T04:23:10;6.43;;;4.90;;
6205;SDS011;3136;48.788;9.772;2023-05-20T04:25:36;6.13;;;5.37;;
6205;SDS011;3136;48.788;9.772;2023-05-20T04:28:01;5.30;;;4.43;;
6205;SDS011;3136;48.788;9.772;2023-05-20T04:30:27;7.93;;;4.50;;
6205;SDS011;3136;48.788;9.772;2023-05-20T04:32:53;5.83;;;4.50;;
6205;SDS011;3136;48.788;9.772;2023-05-20T04:35:18;6.37;;;4.70;;
6205;SDS011;3136;48.788;9.772;2023-05-20T04:37:44;6.80;;;4.70;;
6205;SDS011;3136;48.788;9.772;2023-05-20T04:40:12;7.23;;;4.57;;
6205;SDS011;3136;48.788;9.772;2023-05-20T04:42:38;8.10;;;4.50;;
6205;SDS011;3136;48.788;9.772;2023-05-20T04:45:04;4.53;;;4.13;;
6205;SDS011;3136;48.788;9.772;2023-05-20T04:47:30;4.77;;;4.37;;
6205;SDS011;3136;48.788;9.772;2023-05-20T04:49:56;4.73;;;4.13;;
6205;SDS011;3136;48.788;9.772;2023-05-20T04:52:24;5.40;;;4.17;;
6205;SDS011;3136;48.788;9.772;2023-05-20T04:54:51;5.47;;;4.20;;
6205;SDS011;3136;48.788;9.772;2023-05-20T04:57:16;5.83;;;4.20;;
6205;SDS011;3136;48.788;9.772;2023-05-20T04:59:45;5.30;;;4.10;;
6205;SDS011;3136;48.788;9.772;2023-05-20T05:02:12;6.07;;;4.10;;
6205;SDS011;3136;48.788;9.772;2023-05-20T05:04:38;6.17;;;4.07;;
6205;SDS011;3136;48.788;9.772;2023-05-20T05:07:03;4.27;;;3.87;;
6205;SDS011;3136;48.788;9.772;2023-05-20T05:09:29;5.93;;;4.03;;
6205;SDS011;3136;48.788;9.772;2023-05-20T05:11:55;5.27;;;3.60;;
6205;SDS011;3136;48.788;9.772;2023-05-20T05:14:20;7.03;;;4.30;;
6205;SDS011;3136;48.788;9.772;2023-05-20T05:16:47;4.80;;;4.20;;
6205;SDS011;3136;48.788;9.772;2023-05-20T05:19:13;5.20;;;4.07;;
6205;SDS011;3136;48.788;9.772;2023-05-20T05:21:39;5.20;;;4.13;;
6205;SDS011;3136;48.788;9.772;2023-05-20T05:24:04;4.30;;;3.90;;
6205;SDS011;3136;48.788;9.772;2023-05-20T05:26:30;6.80;;;4.30;;
6205;SDS011;3136;48.788;9.772;2023-05-20T05:28:55;4.53;;;4.10;;
6205;SDS011;3136;48.788;9.772;2023-05-20T05:31:21;5.40;;;4.90;;
6205;SDS011;3136;48.788;9.772;2023-05-20T05:33:46;6.27;;;4.70;;
6205;SDS011;3136;48.788;9.772;2023-05-20T05:36:12;5.67;;;4.77;;
6205;SDS011;3136;48.788;9.772;2023-05-20T05:38:38;5.77;;;4.93;;
6205;SDS011;3136;48.788;9.772;2023-05-20T05:41:03;6.83;;;4.60;;
6205;SDS011;3136;48.788;9.772;2023-05-20T05:43:29;6.93;;;5.00;;
6205;SDS011;3136;48.788;9.772;2023-05-20T05:45:55;6.97;;;4.93;;
6205;SDS011;3136;48.788;9.772;2023-05-20T05:48:21;6.77;;;5.30;;
6205;SDS011;3136;48.788;9.772;2023-05-20T05:50:47;6.67;;;5.40;;
6205;SDS011;3136;48.788;9.772;2023-05-20T05:53:12;5.93;;;5.13;;
6205;SDS011;3136;48.788;9.772;2023-05-20T05:55:38;8.50;;;5.40;;
6205;SDS011;3136;48.788;9.772;2023-05-20T05:58:03;5.90;;;5.03;;
6205;SDS011;3136;48.788;9.772;2023-05-20T06:00:29;5.60;;;5.10;;
6205;SDS011;3136;48.788;9.772;2023-05-20T06:02:55;6.97;;;5.80;;
6205;SDS011;3136;48.788;9.772;2023-05-20T06:05:20;5.47;;;4.97;;
6205;SDS011;3136;48.788;9.772;2023-05-20T06:07:46;8.27;;;5.57;;
6205;SDS011;3136;48.788;9.772;2023-05-20T06:10:11;6.63;;;5.27;;
6205;SDS011;3136;48.788;9.772;2023-05-20T06:12:37;9.47;;;6.20;;
6205;SDS011;3136;48.788;9.772;2023-05-20T06:15:02;6.47;;;5.40;;
6205;SDS011;3136;48.788;9.772;2023-05-20T06:17:28;7.13;;;5.50;;
6205;SDS011;3136;48.788;9.772;2023-05-20T06:19:54;6.20;;;5.00;;
6205;SDS011;3136;48.788;9.772;2023-05-20T06:22:19;6.03;;;5.27;;
6205;SDS011;3136;48.788;9.772;2023-05-20T06:24:45;6.63;;;5.40;;
6205;SDS011;3136;48.788;9.772;2023-05-20T06:27:10;6.03;;;5.30;;
6205;SDS011;3136;48.788;9.772;2023-05-20T06:29:36;7.63;;;5.20;;
6205;SDS011;3136;48.788;9.772;2023-05-20T06:32:02;6.13;;;5.50;;
6205;SDS011;3136;48.788;9.772;2023-05-20T06:34:27;8.07;;;5.47;;
6205;SDS011;3136;48.788;9.772;2023-05-20T06:36:53;5.47;;;4.97;;
6205;SDS011;3136;48.788;9.772;2023-05-20T06:39:20;7.40;;;5.30;;
6205;SDS011;3136;48.788;9.772;2023-05-20T06:41:45;6.60;;;5.10;;
6205;SDS011;3136;48.788;9.772;2023-05-20T06:44:11;6.83;;;5.20;;
6205;SDS011;3136;48.788;9.772;2023-05-20T06:46:37;5.70;;;5.10;;
6205;SDS011;3136;48.788;9.772;2023-05-20T06:49:02;6.93;;;5.30;;
6205;SDS011;3136;48.788;9.772;2023-05-20T06:51:28;5.97;;;4.80;;
6205;SDS011;3136;48.788;9.772;2023-05-20T06:53:53;6.30;;;5.30;;
6205;SDS011;3136;48.788;9.772;2023-05-20T06:56:19;7.40;;;5.43;;
6205;SDS011;3136;48.788;9.772;2023-05-20T06:58:45;6.10;;;5.20;;
6205;SDS011;3136;48.788;9.772;2023-05-20T07:01:11;5.50;;;4.77;;
6205;SDS011;3136;48.788;9.772;2023-05-20T07:03:36;5.80;;;5.30;;
6205;SDS011;3136;48.788;9.772;2023-05-20T07:06:02;5.83;;;5.23;;
6205;SDS011;3136;48.788;9.772;2023-05-20T07:08:27;5.63;;;5.00;;
6205;SDS011;3136;48.788;9.772;2023-05-20T07:10:56;9.10;;;5.20;;
6205;SDS011;3136;48.788;9.772;2023-05-20T07:13:21;5.30;;;4.80;;
6205;SDS011;3136;48.788;9.772;2023-05-20T07:15:48;5.23;;;4.73;;
6205;SDS011;3136;48.788;9.772;2023-05-20T07:18:13;5.50;;;5.00;;
6205;SDS011;3136;48.788;9.772;2023-05-20T07:20:40;4.40;;;4.00;;
6205;SDS011;3136;48.788;9.772;2023-05-20T07:23:05;5.20;;;4.70;;
6205;SDS011;3136;48.788;9.772;2023-05-20T07:25:31;5.23;;;4.73;;
6205;SDS011;3136;48.788;9.772;2023-05-20T07:27:56;5.30;;;4.80;;
6205;SDS011;3136;48.788;9.772;2023-05-20T07:30:24;6.05;;;4.88;;
6205;SDS011;3136;48.788;9.772;2023-05-20T07:32:50;4.83;;;4.43;;
6205;SDS011;3136;48.788;9.772;2023-05-20T07:35:19;4.93;;;4.53;;
6205;SDS011;3136;48.788;9.772;2023-05-20T07:37:45;5.23;;;4.70;;
6205;SDS011;3136;48.788;9.772;2023-05-20T07:40:10;5.33;;;4.80;;
6205;SDS011;3136;48.788;9.772;2023-05-20T07:42:36;6.27;;;4.70;;
6205;SDS011;3136;48.788;9.772;2023-05-20T07:45:01;6.10;;;4.67;;
6205;SDS011;3136;48.788;9.772;2023-05-20T07:47:27;5.47;;;4.83;;
6205;SDS011;3136;48.788;9.772;2023-05-20T07:49:53;6.03;;;4.53;;
6205;SDS011;3136;48.788;9.772;2023-05-20T07:52:18;4.93;;;4.43;;
6205;SDS011;3136;48.788;9.772;2023-05-20T07:54:44;8.33;;;4.50;;
6205;SDS011;3136;48.788;9.772;2023-05-20T07:57:09;7.70;;;4.97;;
6205;SDS011;3136;48.788;9.772;2023-05-20T07:59:35;6.67;;;4.30;;
6205;SDS011;3136;48.788;9.772;2023-05-20T08:02:01;5.27;;;4.73;;
6205;SDS011;3136;48.788;9.772;2023-05-20T08:04:26;6.07;;;4.40;;
6205;SDS011;3136;48.788;9.772;2023-05-20T08:06:52;13.07;;;6.33;;
6205;SDS011;3136;48.788;9.772;2023-05-20T08:09:18;7.87;;;4.70;;
6205;SDS011;3136;48.788;9.772;2023-05-20T08:11:44;5.57;;;4.40;;
6205;SDS011;3136;48.788;9.772;2023-05-20T08:14:10;4.87;;;4.37;;
6205;SDS011;3136;48.788;9.772;2023-05-20T08:16:35;5.10;;;4.63;;
6205;SDS011;3136;48.788;9.772;2023-05-20T08:19:01;7.80;;;5.27;;
6205;SDS011;3136;48.788;9.772;2023-05-20T08:21:27;5.87;;;5.10;;
6205;SDS011;3136;48.788;9.772;2023-05-20T08:23:53;28.03;;;9.50;;
6205;SDS011;3136;48.788;9.772;2023-05-20T08:26:18;5.53;;;4.90;;
6205;SDS011;3136;48.788;9.772;2023-05-20T08:28:45;4.93;;;4.50;;
6205;SDS011;3136;48.788;9.772;2023-05-20T08:31:12;6.30;;;4.43;;
6205;SDS011;3136;48.788;9.772;2023-05-20T08:33:38;5.70;;;4.53;;
6205;SDS011;3136;48.788;9.772;2023-05-20T08:36:04;7.20;;;4.53;;
6205;SDS011;3136;48.788;9.772;2023-05-20T08:38:30;5.13;;;4.60;;
6205;SDS011;3136;48.788;9.772;2023-05-20T08:40:56;5.37;;;4.60;;
6205;SDS011;3136;48.788;9.772;2023-05-20T08:43:22;5.40;;;4.40;;
6205;SDS011;3136;48.788;9.772;2023-05-20T08:45:48;6.37;;;4.80;;
6205;SDS011;3136;48.788;9.772;2023-05-20T08:48:16;6.77;;;4.90;;
6205;SDS011;3136;48.788;9.772;2023-05-20T08:50:43;6.63;;;4.57;;
6205;SDS011;3136;48.788;9.772;2023-05-20T08:53:12;8.33;;;4.80;;
6205;SDS011;3136;48.788;9.772;2023-05-20T08:55:41;51.20;;;6.80;;
6205;SDS011;3136;48.788;9.772;2023-05-20T08:58:10;6.27;;;4.77;;
6205;SDS011;3136;48.788;9.772;2023-05-20T09:00:36;6.60;;;4.60;;
6205;SDS011;3136;48.788;9.772;2023-05-20T09:03:02;6.07;;;4.43;;
6205;SDS011;3136;48.788;9.772;2023-05-20T09:05:29;4.97;;;4.10;;
6205;SDS011;3136;48.788;9.772;2023-05-20T09:08:08;4.70;;;3.90;;
6205;SDS011;3136;48.788;9.772;2023-05-20T09:10:35;6.33;;;4.40;;
6205;SDS011;3136;48.788;9.772;2023-05-20T09:13:02;5.55;;;4.30;;
6205;SDS011;3136;48.788;9.772;2023-05-20T09:15:29;4.67;;;4.17;;
6205;SDS011;3136;48.788;9.772;2023-05-20T09:17:55;5.47;;;4.60;;
6205;SDS011;3136;48.788;9.772;2023-05-20T09:20:24;6.45;;;4.60;;
6205;SDS011;3136;48.788;9.772;2023-05-20T09:22:51;5.13;;;4.33;;
6205;SDS011;3136;48.788;9.772;2023-05-20T09:25:20;6.60;;;4.70;;
6205;SDS011;3136;48.788;9.772;2023-05-20T09:27:47;6.63;;;4.17;;
6205;SDS011;3136;48.788;9.772;2023-05-20T09:30:13;5.97;;;4.53;;
6205;SDS011;3136;48.788;9.772;2023-05-20T09:32:39;21.13;;;4.63;;
6205;SDS011;3136;48.788;9.772;2023-05-20T09:35:05;4.77;;;4.10;;
6205;SDS011;3136;48.788;9.772;2023-05-20T09:37:30;5.97;;;4.20;;
6205;SDS011;3136;48.788;9.772;2023-05-20T09:40:04;4.30;;;3.90;;
6205;SDS011;3136;48.788;9.772;2023-05-20T09:42:44;4.83;;;4.40;;
6205;SDS011;3136;48.788;9.772;2023-05-20T09:45:17;5.47;;;4.07;;
6205;SDS011;3136;48.788;9.772;2023-05-20T09:47:42;4.73;;;4.27;;
6205;SDS011;3136;48.788;9.772;2023-05-20T09:50:09;6.47;;;4.20;;
6205;SDS011;3136;48.788;9.772;2023-05-20T09:52:37;5.60;;;4.17;;
6205;SDS011;3136;48.788;9.772;2023-05-20T09:55:06;4.83;;;4.03;;
6205;SDS011;3136;48.788;9.772;2023-05-20T09:57:34;5.07;;;4.13;;
6205;SDS011;3136;48.788;9.772;2023-05-20T10:00:01;4.57;;;4.03;;
6205;SDS011;3136;48.788;9.772;2023-05-20T10:02:29;5.13;;;3.87;;
6205;SDS011;3136;48.788;9.772;2023-05-20T10:04:56;4.30;;;3.87;;
6205;SDS011;3136;48.788;9.772;2023-05-20T10:21:16;4.90;;;4.30;;
6205;SDS011;3136;48.788;9.772;2023-05-20T10:23:43;7.87;;;3.87;;
6205;SDS011;3136;48.788;9.772;2023-05-20T10:26:09;6.83;;;3.90;;
6205;SDS011;3136;48.788;9.772;2023-05-20T10:28:36;5.30;;;4.00;;
6205;SDS011;3136;48.788;9.772;2023-05-20T10:31:14;4.03;;;3.47;;
6205;SDS011;3136;48.788;9.772;2023-05-20T10:33:47;4.67;;;3.47;;
6205;SDS011;3136;48.788;9.772;2023-05-20T10:36:22;3.80;;;3.40;;
6205;SDS011;3136;48.788;9.772;2023-05-20T10:38:53;6.37;;;3.50;;
6205;SDS011;3136;48.788;9.772;2023-05-20T10:41:21;5.90;;;3.37;;
6205;SDS011;3136;48.788;9.772;2023-05-20T10:44:00;3.77;;;3.47;;
6205;SDS011;3136;48.788;9.772;2023-05-20T10:46:27;4.83;;;3.27;;
6205;SDS011;3136;48.788;9.772;2023-05-20T10:48:53;4.20;;;3.03;;
6205;SDS011;3136;48.788;9.772;2023-05-20T10:51:19;4.17;;;3.43;;
6205;SDS011;3136;48.788;9.772;2023-05-20T10:53:45;6.73;;;3.30;;
6205;SDS011;3136;48.788;9.772;2023-05-20T10:56:18;5.23;;;2.93;;
6205;SDS011;3136;48.788;9.772;2023-05-20T10:58:45;7.97;;;3.40;;
6205;SDS011;3136;48.788;9.772;2023-05-20T11:01:12;4.20;;;3.30;;
6205;SDS011;3136;48.788;9.772;2023-05-20T11:03:39;6.00;;;3.07;;
6205;SDS011;3136;48.788;9.772;2023-05-20T11:06:15;4.50;;;2.77;;
6205;SDS011;3136;48.788;9.772;2023-05-20T11:08:42;3.43;;;2.70;;
6205;SDS011;3136;48.788;9.772;2023-05-20T11:11:11;4.27;;;3.00;;
6205;SDS011;3136;48.788;9.772;2023-05-20T11:13:38;3.90;;;3.10;;
6205;SDS011;3136;48.788;9.772;2023-05-20T11:16:04;3.43;;;3.10;;
6205;SDS011;3136;48.788;9.772;2023-05-20T11:18:29;3.47;;;3.17;;
6205;SDS011;3136;48.788;9.772;2023-05-20T11:20:58;3.53;;;3.17;;
6205;SDS011;3136;48.788;9.772;2023-05-20T11:23:25;6.10;;;3.03;;
6205;SDS011;3136;48.788;9.772;2023-05-20T11:25:52;4.73;;;3.10;;
6205;SDS011;3136;48.788;9.772;2023-05-20T11:28:19;2.90;;;2.70;;
6205;SDS011;3136;48.788;9.772;2023-05-20T11:30:45;4.00;;;2.67;;
6205;SDS011;3136;48.788;9.772;2023-05-20T11:33:12;3.03;;;2.60;;
6205;SDS011;3136;48.788;9.772;2023-05-20T11:35:45;4.10;;;2.63;;
6205;SDS011;3136;48.788;9.772;2023-05-20T11:38:16;6.53;;;2.97;;
6205;SDS011;3136;48.788;9.772;2023-05-20T11:40:43;3.33;;;2.90;;
6205;SDS011;3136;48.788;9.772;2023-05-20T11:43:10;7.60;;;3.20;;
6205;SDS011;3136;48.788;9.772;2023-05-20T11:45:44;11.33;;;3.27;;
6205;SDS011;3136;48.788;9.772;2023-05-20T11:48:22;4.80;;;2.50;;
6205;SDS011;3136;48.788;9.772;2023-05-20T11:50:48;3.67;;;3.00;;
6205;SDS011;3136;48.788;9.772;2023-05-20T11:53:16;5.90;;;2.80;;
6205;SDS011;3136;48.788;9.772;2023-05-20T11:55:47;5.33;;;3.37;;
6205;SDS011;3136;48.788;9.772;2023-05-20T11:58:20;5.50;;;2.87;;
6205;SDS011;3136;48.788;9.772;2023-05-20T12:00:47;5.33;;;3.10;;
6205;SDS011;3136;48.788;9.772;2023-05-20T12:03:13;3.60;;;2.80;;
6205;SDS011;3136;48.788;9.772;2023-05-20T12:05:38;4.40;;;3.00;;
6205;SDS011;3136;48.788;9.772;2023-05-20T12:08:04;13.07;;;3.33;;
6205;SDS011;3136;48.788;9.772;2023-05-20T12:10:30;6.87;;;2.90;;
6205;SDS011;3136;48.788;9.772;2023-05-20T12:12:56;3.27;;;2.87;;
6205;SDS011;3136;48.788;9.772;2023-05-20T12:15:22;10.13;;;3.07;;
6205;SDS011;3136;48.788;9.772;2023-05-20T12:17:49;3.30;;;3.00;;
6205;SDS011;3136;48.788;9.772;2023-05-20T12:20:20;4.13;;;3.30;;
6205;SDS011;3136;48.788;9.772;2023-05-20T12:22:47;3.47;;;3.17;;
6205;SDS011;3136;48.788;9.772;2023-05-20T12:25:14;3.80;;;3.17;;
6205;SDS011;3136;48.788;9.772;2023-05-20T12:27:41;9.80;;;3.17;;
6205;SDS011;3136;48.788;9.772;2023-05-20T12:30:08;5.03;;;3.03;;
6205;SDS011;3136;48.788;9.772;2023-05-20T12:32:37;11.03;;;3.63;;
6205;SDS011;3136;48.788;9.772;2023-05-20T12:35:02;4.23;;;2.73;;
6205;SDS011;3136;48.788;9.772;2023-05-20T12:37:28;4.87;;;2.80;;
6205;SDS011;3136;48.788;9.772;2023-05-20T12:39:54;3.43;;;3.13;;
6205;SDS011;3136;48.788;9.772;2023-05-20T12:42:20;7.63;;;2.83;;
6205;SDS011;3136;48.788;9.772;2023-05-20T12:44:45;3.83;;;2.90;;
6205;SDS011;3136;48.788;9.772;2023-05-20T12:47:11;3.20;;;2.70;;
6205;SDS011;3136;48.788;9.772;2023-05-20T12:49:36;3.10;;;2.80;;
6205;SDS011;3136;48.788;9.772;2023-05-20T12:52:02;2.93;;;2.63;;
6205;SDS011;3136;48.788;9.772;2023-05-20T12:54:28;3.70;;;2.50;;
6205;SDS011;3136;48.788;9.772;2023-05-20T12:56:53;2.90;;;2.60;;
6205;SDS011;3136;48.788;9.772;2023-05-20T12:59:19;2.83;;;2.40;;
6205;SDS011;3136;48.788;9.772;2023-05-20T13:01:45;3.20;;;2.63;;
6205;SDS011;3136;48.788;9.772;2023-05-20T13:04:10;4.30;;;2.60;;
6205;SDS011;3136;48.788;9.772;2023-05-20T13:06:36;5.73;;;2.50;;
6205;SDS011;3136;48.788;9.772;2023-05-20T13:09:01;2.40;;;2.20;;
6205;SDS011;3136;48.788;9.772;2023-05-20T13:11:27;3.20;;;2.63;;
6205;SDS011;3136;48.788;9.772;2023-05-20T13:13:55;2.70;;;2.50;;
6205;SDS011;3136;48.788;9.772;2023-05-20T13:16:22;3.13;;;2.40;;
6205;SDS011;3136;48.788;9.772;2023-05-20T13:18:48;3.63;;;2.50;;
6205;SDS011;3136;48.788;9.772;2023-05-20T13:21:13;4.65;;;2.70;;
6205;SDS011;3136;48.788;9.772;2023-05-20T13:23:40;3.00;;;2.70;;
6205;SDS011;3136;48.788;9.772;2023-05-20T13:26:06;4.13;;;2.53;;
6205;SDS011;3136;48.788;9.772;2023-05-20T13:28:31;4.53;;;2.90;;
6205;SDS011;3136;48.788;9.772;2023-05-20T13:30:57;2.95;;;2.53;;
6205;SDS011;3136;48.788;9.772;2023-05-20T13:33:22;2.80;;;2.50;;
6205;SDS011;3136;48.788;9.772;2023-05-20T13:35:48;2.88;;;2.50;;
6205;SDS011;3136;48.788;9.772;2023-05-20T13:38:14;2.53;;;2.33;;
6205;SDS011;3136;48.788;9.772;2023-05-20T13:40:40;3.30;;;2.35;;
6205;SDS011;3136;48.788;9.772;2023-05-20T13:43:06;2.65;;;2.45;;
6205;SDS011;3136;48.788;9.772;2023-05-20T13:45:31;4.55;;;2.50;;
6205;SDS011;3136;48.788;9.772;2023-05-20T13:47:57;3.47;;;2.88;;
6205;SDS011;3136;48.788;9.772;2023-05-20T13:50:22;4.80;;;2.80;;
6205;SDS011;3136;48.788;9.772;2023-05-20T13:52:48;5.07;;;3.10;;
6205;SDS011;3136;48.788;9.772;2023-05-20T13:55:14;3.70;;;2.80;;
6205;SDS011;3136;48.788;9.772;2023-05-20T13:57:40;4.17;;;2.97;;
6205;SDS011;3136;48.788;9.772;2023-05-20T14:00:06;3.07;;;2.80;;
6205;SDS011;3136;48.788;9.772;2023-05-20T14:02:33;3.40;;;2.90;;
6205;SDS011;3136;48.788;9.772;2023-05-20T14:04:58;3.10;;;2.80;;
6205;SDS011;3136;48.788;9.772;2023-05-20T14:07:25;3.67;;;2.70;;
6205;SDS011;3136;48.788;9.772;2023-05-20T14:09:50;5.70;;;2.80;;
6205;SDS011;3136;48.788;9.772;2023-05-20T14:12:16;4.37;;;2.63;;
6205;SDS011;3136;48.788;9.772;2023-05-20T14:14:41;3.43;;;2.93;;
6205;SDS011;3136;48.788;9.772;2023-05-20T14:17:07;4.70;;;3.13;;
6205;SDS011;3136;48.788;9.772;2023-05-20T14:19:33;3.73;;;2.80;;
6205;SDS011;3136;48.788;9.772;2023-05-20T14:21:58;3.23;;;2.93;;
6205;SDS011;3136;48.788;9.772;2023-05-20T14:24:25;3.80;;;3.20;;
6205;SDS011;3136;48.788;9.772;2023-05-20T14:26:51;3.63;;;2.77;;
6205;SDS011;3136;48.788;9.772;2023-05-20T14:29:17;3.60;;;2.90;;
6205;SDS011;3136;48.788;9.772;2023-05-20T14:31:42;2.90;;;2.60;;
6205;SDS011;3136;48.788;9.772;2023-05-20T14:34:08;5.57;;;2.80;;
6205;SDS011;3136;48.788;9.772;2023-05-20T14:36:34;3.30;;;3.00;;
6205;SDS011;3136;48.788;9.772;2023-05-20T14:39:00;4.67;;;2.90;;
6205;SDS011;3136;48.788;9.772;2023-05-20T14:41:25;4.37;;;3.03;;
6205;SDS011;3136;48.788;9.772;2023-05-20T14:43:51;4.07;;;2.80;;
6205;SDS011;3136;48.788;9.772;2023-05-20T14:46:16;4.60;;;2.87;;
6205;SDS011;3136;48.788;9.772;2023-05-20T14:48:42;3.47;;;3.13;;
6205;SDS011;3136;48.788;9.772;2023-05-20T14:51:08;6.53;;;3.00;;
6205;SDS011;3136;48.788;9.772;2023-05-20T14:53:33;3.67;;;3.00;;
6205;SDS011;3136;48.788;9.772;2023-05-20T14:55:59;6.43;;;3.07;;
6205;SDS011;3136;48.788;9.772;2023-05-20T14:58:24;4.17;;;3.33;;
6205;SDS011;3136;48.788;9.772;2023-05-20T15:00:51;5.33;;;3.13;;
6205;SDS011;3136;48.788;9.772;2023-05-20T15:03:17;3.63;;;3.13;;
6205;SDS011;3136;48.788;9.772;2023-05-20T15:05:43;6.10;;;3.27;;
6205;SDS011;3136;48.788;9.772;2023-05-20T15:08:08;4.40;;;3.10;;
6205;SDS011;3136;48.788;9.772;2023-05-20T15:10:34;5.87;;;3.53;;
6205;SDS011;3136;48.788;9.772;2023-05-20T15:13:00;3.83;;;3.07;;
6205;SDS011;3136;48.788;9.772;2023-05-20T15:15:25;4.07;;;3.00;;
6205;SDS011;3136;48.788;9.772;2023-05-20T15:17:51;3.63;;;3.33;;
6205;SDS011;3136;48.788;9.772;2023-05-20T15:20:17;4.87;;;3.30;;
6205;SDS011;3136;48.788;9.772;2023-05-20T15:22:42;3.70;;;2.80;;
6205;SDS011;3136;48.788;9.772;2023-05-20T15:25:11;3.67;;;3.00;;